sensor_id;sensor_type;location;lat;lon;timestamp;P1;durP1;ratioP1;P2;durP2;ratioP2
70975;SDS011;58635;51.198;6.010;2023-05-21T00:00:41;9.45;;;6.57;;
70975;SDS011;58635;51.198;6.010;2023-05-21T00:03:07;9.15;;;6.97;;
70975;SDS011;58635;51.198;6.010;2023-05-21T00:05:38;8.80;;;6.97;;
70975;SDS011;58635;51.198;6.010;2023-05-21T00:08:04;9.65;;;7.07;;
70975;SDS011;58635;51.198;6.010;2023-05-21T00:10:30;8.73;;;6.82;;
70975;SDS011;58635;51.198;6.010;2023-05-21T00:12:56;8.45;;;6.90;;
70975;SDS011;58635;51.198;6.010;2023-05-21T00:15:21;12.43;;;7.20;;
70975;SDS011;58635;51.198;6.010;2023-05-21T00:17:46;8.25;;;6.75;;
70975;SDS011;58635;51.198;6.010;2023-05-21T00:20:12;8.95;;;7.20;;
70975;SDS011;58635;51.198;6.010;2023-05-21T00:22:37;10.35;;;7.28;;
70975;SDS011;58635;51.198;6.010;2023-05-21T00:25:04;11.45;;;7.85;;
70975;SDS011;58635;51.198;6.010;2023-05-21T00:27:30;9.77;;;7.40;;
70975;SDS011;58635;51.198;6.010;2023-05-21T00:29:55;10.30;;;7.65;;
70975;SDS011;58635;51.198;6.010;2023-05-21T00:32:21;10.57;;;7.72;;
70975;SDS011;58635;51.198;6.010;2023-05-21T00:34:46;9.68;;;7.55;;
70975;SDS011;58635;51.198;6.010;2023-05-21T00:37:12;10.38;;;7.40;;
70975;SDS011;58635;51.198;6.010;2023-05-21T00:39:39;11.15;;;8.13;;
70975;SDS011;58635;51.198;6.010;2023-05-21T00:42:05;10.43;;;8.02;;
70975;SDS011;58635;51.198;6.010;2023-05-21T00:44:30;13.40;;;7.72;;
70975;SDS011;58635;51.198;6.010;2023-05-21T00:47:02;9.95;;;7.57;;
70975;SDS011;58635;51.198;6.010;2023-05-21T00:49:28;10.55;;;6.97;;
70975;SDS011;58635;51.198;6.010;2023-05-21T00:51:55;10.40;;;7.10;;
70975;SDS011;58635;51.198;6.010;2023-05-21T00:54:21;10.27;;;7.63;;
70975;SDS011;58635;51.198;6.010;2023-05-21T00:56:47;11.68;;;7.40;;
70975;SDS011;58635;51.198;6.010;2023-05-21T00:59:14;9.38;;;7.55;;
70975;SDS011;58635;51.198;6.010;2023-05-21T01:01:41;9.25;;;7.40;;
70975;SDS011;58635;51.198;6.010;2023-05-21T01:04:09;8.52;;;7.10;;
70975;SDS011;58635;51.198;6.010;2023-05-21T01:06:35;11.93;;;7.47;;
70975;SDS011;58635;51.198;6.010;2023-05-21T01:09:02;8.50;;;7.22;;
70975;SDS011;58635;51.198;6.010;2023-05-21T01:11:47;10.15;;;7.60;;
70975;SDS011;58635;51.198;6.010;2023-05-21T01:14:15;10.38;;;7.88;;
70975;SDS011;58635;51.198;6.010;2023-05-21T01:16:43;11.68;;;7.65;;
70975;SDS011;58635;51.198;6.010;2023-05-21T01:19:12;9.70;;;7.18;;
70975;SDS011;58635;51.198;6.010;2023-05-21T01:21:41;9.77;;;7.20;;
70975;SDS011;58635;51.198;6.010;2023-05-21T01:24:09;9.85;;;7.47;;
70975;SDS011;58635;51.198;6.010;2023-05-21T01:26:34;9.05;;;7.35;;
70975;SDS011;58635;51.198;6.010;2023-05-21T01:29:05;10.00;;;7.47;;
70975;SDS011;58635;51.198;6.010;2023-05-21T01:39:48;10.32;;;7.32;;
70975;SDS011;58635;51.198;6.010;2023-05-21T01:42:18;12.13;;;7.88;;
70975;SDS011;58635;51.198;6.010;2023-05-21T01:44:47;8.93;;;7.28;;
70975;SDS011;58635;51.198;6.010;2023-05-21T01:47:15;9.90;;;8.05;;
70975;SDS011;58635;51.198;6.010;2023-05-21T01:49:42;9.05;;;7.57;;
70975;SDS011;58635;51.198;6.010;2023-05-21T01:52:08;12.65;;;7.93;;
70975;SDS011;58635;51.198;6.010;2023-05-21T01:54:33;10.20;;;7.60;;
70975;SDS011;58635;51.198;6.010;2023-05-21T01:56:59;11.45;;;7.93;;
70975;SDS011;58635;51.198;6.010;2023-05-21T01:59:25;10.05;;;8.43;;
70975;SDS011;58635;51.198;6.010;2023-05-21T02:01:51;12.45;;;7.82;;
70975;SDS011;58635;51.198;6.010;2023-05-21T02:04:17;9.93;;;7.68;;
70975;SDS011;58635;51.198;6.010;2023-05-21T02:06:42;10.38;;;8.38;;
70975;SDS011;58635;51.198;6.010;2023-05-21T02:09:08;9.48;;;7.82;;
70975;SDS011;58635;51.198;6.010;2023-05-21T02:11:33;9.35;;;7.55;;
70975;SDS011;58635;51.198;6.010;2023-05-21T02:13:59;9.73;;;8.00;;
70975;SDS011;58635;51.198;6.010;2023-05-21T02:16:24;9.30;;;8.05;;
70975;SDS011;58635;51.198;6.010;2023-05-21T02:18:50;9.40;;;7.93;;
70975;SDS011;58635;51.198;6.010;2023-05-21T02:21:17;10.30;;;7.47;;
70975;SDS011;58635;51.198;6.010;2023-05-21T02:23:44;9.13;;;7.65;;
70975;SDS011;58635;51.198;6.010;2023-05-21T02:26:09;10.88;;;8.07;;
70975;SDS011;58635;51.198;6.010;2023-05-21T02:28:35;10.95;;;7.10;;
70975;SDS011;58635;51.198;6.010;2023-05-21T02:31:00;10.23;;;7.50;;
70975;SDS011;58635;51.198;6.010;2023-05-21T02:33:26;10.57;;;7.97;;
70975;SDS011;58635;51.198;6.010;2023-05-21T02:35:51;10.18;;;7.85;;
70975;SDS011;58635;51.198;6.010;2023-05-21T02:38:16;10.35;;;7.82;;
70975;SDS011;58635;51.198;6.010;2023-05-21T02:40:44;10.35;;;7.80;;
70975;SDS011;58635;51.198;6.010;2023-05-21T02:43:09;9.77;;;7.65;;
70975;SDS011;58635;51.198;6.010;2023-05-21T02:45:35;10.55;;;8.05;;
70975;SDS011;58635;51.198;6.010;2023-05-21T02:48:00;8.93;;;7.60;;
70975;SDS011;58635;51.198;6.010;2023-05-21T02:50:26;8.98;;;7.50;;
70975;SDS011;58635;51.198;6.010;2023-05-21T02:52:51;10.05;;;8.00;;
70975;SDS011;58635;51.198;6.010;2023-05-21T02:55:16;10.07;;;8.23;;
70975;SDS011;58635;51.198;6.010;2023-05-21T02:57:42;9.50;;;8.20;;
70975;SDS011;58635;51.198;6.010;2023-05-21T03:00:07;10.80;;;8.43;;
70975;SDS011;58635;51.198;6.010;2023-05-21T03:02:34;10.35;;;8.48;;
70975;SDS011;58635;51.198;6.010;2023-05-21T03:04:59;9.05;;;7.97;;
70975;SDS011;58635;51.198;6.010;2023-05-21T03:07:25;10.38;;;8.40;;
70975;SDS011;58635;51.198;6.010;2023-05-21T03:09:50;9.98;;;8.20;;
70975;SDS011;58635;51.198;6.010;2023-05-21T03:12:16;11.35;;;8.73;;
70975;SDS011;58635;51.198;6.010;2023-05-21T03:14:41;11.52;;;8.60;;
70975;SDS011;58635;51.198;6.010;2023-05-21T03:17:08;11.38;;;8.48;;
70975;SDS011;58635;51.198;6.010;2023-05-21T03:19:39;9.98;;;7.97;;
70975;SDS011;58635;51.198;6.010;2023-05-21T03:22:05;9.85;;;7.72;;
70975;SDS011;58635;51.198;6.010;2023-05-21T03:24:31;9.60;;;8.43;;
70975;SDS011;58635;51.198;6.010;2023-05-21T03:26:57;10.15;;;8.57;;
70975;SDS011;58635;51.198;6.010;2023-05-21T03:29:24;11.52;;;8.73;;
70975;SDS011;58635;51.198;6.010;2023-05-21T03:31:52;9.70;;;7.95;;
70975;SDS011;58635;51.198;6.010;2023-05-21T03:34:18;11.23;;;8.32;;
70975;SDS011;58635;51.198;6.010;2023-05-21T03:36:44;11.05;;;8.45;;
70975;SDS011;58635;51.198;6.010;2023-05-21T03:39:10;12.20;;;9.07;;
70975;SDS011;58635;51.198;6.010;2023-05-21T03:41:36;10.70;;;8.55;;
70975;SDS011;58635;51.198;6.010;2023-05-21T03:44:01;10.80;;;8.15;;
70975;SDS011;58635;51.198;6.010;2023-05-21T03:46:27;10.50;;;7.97;;
70975;SDS011;58635;51.198;6.010;2023-05-21T03:48:52;10.45;;;8.10;;
70975;SDS011;58635;51.198;6.010;2023-05-21T03:51:18;9.35;;;8.00;;
70975;SDS011;58635;51.198;6.010;2023-05-21T03:53:44;9.52;;;7.57;;
70975;SDS011;58635;51.198;6.010;2023-05-21T03:56:10;9.25;;;8.10;;
70975;SDS011;58635;51.198;6.010;2023-05-21T03:58:35;10.45;;;8.07;;
70975;SDS011;58635;51.198;6.010;2023-05-21T04:01:01;11.65;;;8.52;;
70975;SDS011;58635;51.198;6.010;2023-05-21T04:03:28;10.35;;;8.32;;
70975;SDS011;58635;51.198;6.010;2023-05-21T04:05:54;11.27;;;8.15;;
70975;SDS011;58635;51.198;6.010;2023-05-21T04:08:20;9.63;;;7.57;;
70975;SDS011;58635;51.198;6.010;2023-05-21T04:10:45;11.20;;;8.10;;
70975;SDS011;58635;51.198;6.010;2023-05-21T04:13:11;10.75;;;8.50;;
70975;SDS011;58635;51.198;6.010;2023-05-21T04:15:36;9.40;;;7.95;;
70975;SDS011;58635;51.198;6.010;2023-05-21T04:18:02;10.10;;;7.95;;
70975;SDS011;58635;51.198;6.010;2023-05-21T04:20:28;9.50;;;7.72;;
70975;SDS011;58635;51.198;6.010;2023-05-21T04:22:54;9.75;;;8.15;;
70975;SDS011;58635;51.198;6.010;2023-05-21T04:25:19;10.82;;;8.20;;
70975;SDS011;58635;51.198;6.010;2023-05-21T04:27:47;8.88;;;7.97;;
70975;SDS011;58635;51.198;6.010;2023-05-21T04:30:14;11.48;;;7.93;;
70975;SDS011;58635;51.198;6.010;2023-05-21T04:32:39;10.10;;;8.30;;
70975;SDS011;58635;51.198;6.010;2023-05-21T04:35:04;11.20;;;7.55;;
70975;SDS011;58635;51.198;6.010;2023-05-21T04:37:30;10.25;;;7.70;;
70975;SDS011;58635;51.198;6.010;2023-05-21T04:39:58;8.98;;;7.68;;
70975;SDS011;58635;51.198;6.010;2023-05-21T04:42:25;10.48;;;7.75;;
70975;SDS011;58635;51.198;6.010;2023-05-21T04:44:51;9.48;;;7.53;;
70975;SDS011;58635;51.198;6.010;2023-05-21T04:47:16;9.18;;;7.07;;
70975;SDS011;58635;51.198;6.010;2023-05-21T04:49:45;8.38;;;7.10;;
70975;SDS011;58635;51.198;6.010;2023-05-21T04:52:14;9.65;;;7.38;;
70975;SDS011;58635;51.198;6.010;2023-05-21T04:54:40;9.05;;;6.90;;
70975;SDS011;58635;51.198;6.010;2023-05-21T04:57:06;10.98;;;8.18;;
70975;SDS011;58635;51.198;6.010;2023-05-21T04:59:32;8.45;;;7.03;;
70975;SDS011;58635;51.198;6.010;2023-05-21T05:01:58;10.38;;;7.47;;
70975;SDS011;58635;51.198;6.010;2023-05-21T05:04:23;9.88;;;6.97;;
70975;SDS011;58635;51.198;6.010;2023-05-21T05:06:48;8.75;;;7.45;;
70975;SDS011;58635;51.198;6.010;2023-05-21T05:09:14;9.10;;;7.13;;
70975;SDS011;58635;51.198;6.010;2023-05-21T05:11:40;10.13;;;7.07;;
70975;SDS011;58635;51.198;6.010;2023-05-21T05:14:05;8.27;;;6.70;;
70975;SDS011;58635;51.198;6.010;2023-05-21T05:16:31;9.02;;;6.75;;
70975;SDS011;58635;51.198;6.010;2023-05-21T05:18:58;7.57;;;6.50;;
70975;SDS011;58635;51.198;6.010;2023-05-21T05:21:23;7.93;;;6.43;;
70975;SDS011;58635;51.198;6.010;2023-05-21T05:23:49;10.02;;;6.70;;
70975;SDS011;58635;51.198;6.010;2023-05-21T05:26:14;8.70;;;6.68;;
70975;SDS011;58635;51.198;6.010;2023-05-21T05:28:39;8.65;;;6.93;;
70975;SDS011;58635;51.198;6.010;2023-05-21T05:31:05;9.52;;;6.68;;
70975;SDS011;58635;51.198;6.010;2023-05-21T05:33:30;8.80;;;7.30;;
70975;SDS011;58635;51.198;6.010;2023-05-21T05:35:56;7.85;;;6.18;;
70975;SDS011;58635;51.198;6.010;2023-05-21T05:38:21;8.45;;;6.40;;
70975;SDS011;58635;51.198;6.010;2023-05-21T05:40:47;7.93;;;6.30;;
70975;SDS011;58635;51.198;6.010;2023-05-21T05:43:12;8.50;;;6.53;;
70975;SDS011;58635;51.198;6.010;2023-05-21T05:45:37;8.32;;;7.05;;
70975;SDS011;58635;51.198;6.010;2023-05-21T05:48:03;7.97;;;6.15;;
70975;SDS011;58635;51.198;6.010;2023-05-21T05:50:28;8.45;;;6.50;;
70975;SDS011;58635;51.198;6.010;2023-05-21T05:52:54;8.48;;;6.95;;
70975;SDS011;58635;51.198;6.010;2023-05-21T05:55:19;9.32;;;6.68;;
70975;SDS011;58635;51.198;6.010;2023-05-21T05:57:46;7.90;;;6.28;;
70975;SDS011;58635;51.198;6.010;2023-05-21T06:00:12;7.35;;;5.85;;
70975;SDS011;58635;51.198;6.010;2023-05-21T06:02:38;7.10;;;6.07;;
70975;SDS011;58635;51.198;6.010;2023-05-21T06:05:03;9.30;;;6.22;;
70975;SDS011;58635;51.198;6.010;2023-05-21T06:07:31;7.65;;;5.93;;
70975;SDS011;58635;51.198;6.010;2023-05-21T06:09:56;8.00;;;6.15;;
70975;SDS011;58635;51.198;6.010;2023-05-21T06:12:22;11.00;;;5.88;;
70975;SDS011;58635;51.198;6.010;2023-05-21T06:14:47;8.13;;;6.03;;
70975;SDS011;58635;51.198;6.010;2023-05-21T06:17:13;9.60;;;5.90;;
70975;SDS011;58635;51.198;6.010;2023-05-21T06:19:39;8.23;;;6.63;;
70975;SDS011;58635;51.198;6.010;2023-05-21T06:22:04;8.57;;;6.50;;
70975;SDS011;58635;51.198;6.010;2023-05-21T06:24:29;7.78;;;6.03;;
70975;SDS011;58635;51.198;6.010;2023-05-21T06:26:55;7.93;;;5.80;;
70975;SDS011;58635;51.198;6.010;2023-05-21T06:29:20;7.78;;;6.07;;
70975;SDS011;58635;51.198;6.010;2023-05-21T06:31:45;11.27;;;6.70;;
70975;SDS011;58635;51.198;6.010;2023-05-21T06:34:11;7.38;;;5.80;;
70975;SDS011;58635;51.198;6.010;2023-05-21T06:36:36;8.50;;;6.20;;
70975;SDS011;58635;51.198;6.010;2023-05-21T06:39:02;8.27;;;6.03;;
70975;SDS011;58635;51.198;6.010;2023-05-21T06:41:27;9.38;;;6.38;;
70975;SDS011;58635;51.198;6.010;2023-05-21T06:43:53;7.13;;;5.70;;
70975;SDS011;58635;51.198;6.010;2023-05-21T06:46:18;7.95;;;6.00;;
70975;SDS011;58635;51.198;6.010;2023-05-21T06:48:43;6.93;;;6.05;;
70975;SDS011;58635;51.198;6.010;2023-05-21T06:51:10;8.25;;;6.93;;
70975;SDS011;58635;51.198;6.010;2023-05-21T06:53:36;7.97;;;6.55;;
70975;SDS011;58635;51.198;6.010;2023-05-21T06:56:01;9.85;;;6.55;;
70975;SDS011;58635;51.198;6.010;2023-05-21T06:58:26;7.57;;;6.43;;
70975;SDS011;58635;51.198;6.010;2023-05-21T07:00:55;7.72;;;6.60;;
70975;SDS011;58635;51.198;6.010;2023-05-21T07:03:24;10.45;;;6.93;;
70975;SDS011;58635;51.198;6.010;2023-05-21T07:05:49;7.30;;;5.93;;
70975;SDS011;58635;51.198;6.010;2023-05-21T07:08:15;8.38;;;6.28;;
70975;SDS011;58635;51.198;6.010;2023-05-21T07:10:40;7.82;;;5.75;;
70975;SDS011;58635;51.198;6.010;2023-05-21T07:13:06;9.27;;;6.60;;
70975;SDS011;58635;51.198;6.010;2023-05-21T07:15:32;10.35;;;7.10;;
70975;SDS011;58635;51.198;6.010;2023-05-21T07:17:57;7.80;;;6.65;;
70975;SDS011;58635;51.198;6.010;2023-05-21T07:20:22;8.70;;;6.90;;
70975;SDS011;58635;51.198;6.010;2023-05-21T07:22:48;9.07;;;7.13;;
70975;SDS011;58635;51.198;6.010;2023-05-21T07:25:13;9.27;;;6.68;;
70975;SDS011;58635;51.198;6.010;2023-05-21T07:27:40;9.68;;;6.95;;
70975;SDS011;58635;51.198;6.010;2023-05-21T07:30:06;8.85;;;6.85;;
70975;SDS011;58635;51.198;6.010;2023-05-21T07:32:33;9.80;;;7.07;;
70975;SDS011;58635;51.198;6.010;2023-05-21T07:34:58;10.10;;;7.47;;
70975;SDS011;58635;51.198;6.010;2023-05-21T07:37:25;8.05;;;6.95;;
70975;SDS011;58635;51.198;6.010;2023-05-21T07:39:51;9.27;;;7.93;;
70975;SDS011;58635;51.198;6.010;2023-05-21T07:42:18;9.45;;;7.40;;
70975;SDS011;58635;51.198;6.010;2023-05-21T07:44:43;8.82;;;7.30;;
70975;SDS011;58635;51.198;6.010;2023-05-21T07:47:09;10.10;;;7.65;;
70975;SDS011;58635;51.198;6.010;2023-05-21T07:49:34;10.80;;;7.95;;
70975;SDS011;58635;51.198;6.010;2023-05-21T07:51:59;10.68;;;8.20;;
70975;SDS011;58635;51.198;6.010;2023-05-21T07:54:25;9.68;;;7.80;;
70975;SDS011;58635;51.198;6.010;2023-05-21T07:56:50;12.07;;;7.55;;
70975;SDS011;58635;51.198;6.010;2023-05-21T07:59:15;12.50;;;7.75;;
70975;SDS011;58635;51.198;6.010;2023-05-21T08:01:41;8.95;;;8.05;;
70975;SDS011;58635;51.198;6.010;2023-05-21T08:04:07;10.27;;;8.13;;
70975;SDS011;58635;51.198;6.010;2023-05-21T08:06:33;9.48;;;8.45;;
70975;SDS011;58635;51.198;6.010;2023-05-21T08:09:01;10.15;;;7.75;;
70975;SDS011;58635;51.198;6.010;2023-05-21T08:11:27;8.68;;;7.18;;
70975;SDS011;58635;51.198;6.010;2023-05-21T08:13:53;8.63;;;7.57;;
70975;SDS011;58635;51.198;6.010;2023-05-21T08:16:19;10.93;;;7.60;;
70975;SDS011;58635;51.198;6.010;2023-05-21T08:18:45;11.02;;;7.72;;
70975;SDS011;58635;51.198;6.010;2023-05-21T08:21:10;8.45;;;7.45;;
70975;SDS011;58635;51.198;6.010;2023-05-21T08:23:36;9.70;;;8.68;;
70975;SDS011;58635;51.198;6.010;2023-05-21T08:26:01;9.38;;;7.65;;
70975;SDS011;58635;51.198;6.010;2023-05-21T08:28:26;9.57;;;7.97;;
70975;SDS011;58635;51.198;6.010;2023-05-21T08:30:53;9.68;;;7.38;;
70975;SDS011;58635;51.198;6.010;2023-05-21T08:33:18;9.68;;;7.63;;
70975;SDS011;58635;51.198;6.010;2023-05-21T08:35:44;9.70;;;7.35;;
70975;SDS011;58635;51.198;6.010;2023-05-21T08:38:09;10.88;;;8.00;;
70975;SDS011;58635;51.198;6.010;2023-05-21T08:40:35;8.77;;;7.13;;
70975;SDS011;58635;51.198;6.010;2023-05-21T08:43:00;10.68;;;8.63;;
70975;SDS011;58635;51.198;6.010;2023-05-21T08:45:26;9.98;;;7.78;;
70975;SDS011;58635;51.198;6.010;2023-05-21T08:48:01;11.10;;;8.60;;
70975;SDS011;58635;51.198;6.010;2023-05-21T08:50:27;10.30;;;8.32;;
70975;SDS011;58635;51.198;6.010;2023-05-21T08:52:53;12.90;;;8.02;;
70975;SDS011;58635;51.198;6.010;2023-05-21T08:55:23;12.23;;;7.60;;
70975;SDS011;58635;51.198;6.010;2023-05-21T08:57:48;12.43;;;7.50;;
70975;SDS011;58635;51.198;6.010;2023-05-21T09:00:14;10.70;;;8.55;;
70975;SDS011;58635;51.198;6.010;2023-05-21T09:02:40;12.95;;;8.80;;
70975;SDS011;58635;51.198;6.010;2023-05-21T09:05:07;9.52;;;8.25;;
70975;SDS011;58635;51.198;6.010;2023-05-21T09:07:57;9.35;;;7.95;;
70975;SDS011;58635;51.198;6.010;2023-05-21T09:10:25;11.43;;;7.80;;
70975;SDS011;58635;51.198;6.010;2023-05-21T09:15:23;9.98;;;8.50;;
70975;SDS011;58635;51.198;6.010;2023-05-21T09:17:49;11.77;;;8.73;;
70975;SDS011;58635;51.198;6.010;2023-05-21T09:20:15;9.40;;;7.75;;
70975;SDS011;58635;51.198;6.010;2023-05-21T09:22:42;10.50;;;8.43;;
70975;SDS011;58635;51.198;6.010;2023-05-21T09:25:13;10.63;;;8.82;;
70975;SDS011;58635;51.198;6.010;2023-05-21T09:27:40;13.27;;;8.77;;
70975;SDS011;58635;51.198;6.010;2023-05-21T09:30:15;9.93;;;8.48;;
70975;SDS011;58635;51.198;6.010;2023-05-21T09:32:43;11.90;;;9.00;;
70975;SDS011;58635;51.198;6.010;2023-05-21T09:35:10;10.02;;;8.80;;
70975;SDS011;58635;51.198;6.010;2023-05-21T09:42:47;10.25;;;8.30;;
70975;SDS011;58635;51.198;6.010;2023-05-21T09:45:26;12.55;;;9.20;;
70975;SDS011;58635;51.198;6.010;2023-05-21T09:47:53;9.93;;;8.57;;
70975;SDS011;58635;51.198;6.010;2023-05-21T09:50:20;10.18;;;8.80;;
70975;SDS011;58635;51.198;6.010;2023-05-21T09:52:45;11.07;;;8.65;;
70975;SDS011;58635;51.198;6.010;2023-05-21T09:55:12;10.20;;;8.98;;
70975;SDS011;58635;51.198;6.010;2023-05-21T09:57:45;12.52;;;9.68;;
70975;SDS011;58635;51.198;6.010;2023-05-21T10:00:22;12.10;;;9.32;;
70975;SDS011;58635;51.198;6.010;2023-05-21T10:02:55;11.13;;;9.23;;
70975;SDS011;58635;51.198;6.010;2023-05-21T10:05:26;11.40;;;10.20;;
70975;SDS011;58635;51.198;6.010;2023-05-21T10:07:54;11.60;;;10.05;;
70975;SDS011;58635;51.198;6.010;2023-05-21T10:10:24;10.07;;;9.07;;
70975;SDS011;58635;51.198;6.010;2023-05-21T10:13:05;10.93;;;9.38;;
70975;SDS011;58635;51.198;6.010;2023-05-21T10:15:54;11.18;;;9.88;;
70975;SDS011;58635;51.198;6.010;2023-05-21T10:18:21;10.85;;;9.65;;
70975;SDS011;58635;51.198;6.010;2023-05-21T10:20:47;11.02;;;9.93;;
70975;SDS011;58635;51.198;6.010;2023-05-21T10:23:13;12.77;;;10.63;;
70975;SDS011;58635;51.198;6.010;2023-05-21T10:25:39;13.00;;;10.90;;
70975;SDS011;58635;51.198;6.010;2023-05-21T10:28:05;12.25;;;10.98;;
70975;SDS011;58635;51.198;6.010;2023-05-21T10:30:31;13.13;;;10.35;;
70975;SDS011;58635;51.198;6.010;2023-05-21T10:32:57;13.05;;;10.32;;
70975;SDS011;58635;51.198;6.010;2023-05-21T10:35:23;12.57;;;10.52;;
70975;SDS011;58635;51.198;6.010;2023-05-21T10:37:50;12.38;;;9.93;;
70975;SDS011;58635;51.198;6.010;2023-05-21T10:40:17;12.98;;;10.63;;
70975;SDS011;58635;51.198;6.010;2023-05-21T11:01:10;14.05;;;11.40;;
70975;SDS011;58635;51.198;6.010;2023-05-21T11:03:36;11.68;;;10.02;;
70975;SDS011;58635;51.198;6.010;2023-05-21T11:06:02;15.98;;;11.90;;
70975;SDS011;58635;51.198;6.010;2023-05-21T11:08:30;12.77;;;11.35;;
70975;SDS011;58635;51.198;6.010;2023-05-21T11:10:59;13.13;;;11.80;;
70975;SDS011;58635;51.198;6.010;2023-05-21T11:13:25;13.35;;;11.27;;
70975;SDS011;58635;51.198;6.010;2023-05-21T11:21:09;11.98;;;10.77;;
70975;SDS011;58635;51.198;6.010;2023-05-21T11:27:16;11.73;;;10.45;;
70975;SDS011;58635;51.198;6.010;2023-05-21T11:29:30;13.10;;;10.38;;
70975;SDS011;58635;51.198;6.010;2023-05-21T11:32:00;12.98;;;11.25;;
70975;SDS011;58635;51.198;6.010;2023-05-21T11:34:31;14.13;;;12.48;;
70975;SDS011;58635;51.198;6.010;2023-05-21T11:39:42;13.20;;;11.80;;
70975;SDS011;58635;51.198;6.010;2023-05-21T11:42:08;17.23;;;12.30;;
70975;SDS011;58635;51.198;6.010;2023-05-21T11:44:41;13.65;;;11.57;;
70975;SDS011;58635;51.198;6.010;2023-05-21T11:47:13;13.02;;;11.30;;
70975;SDS011;58635;51.198;6.010;2023-05-21T11:49:40;12.48;;;11.23;;
70975;SDS011;58635;51.198;6.010;2023-05-21T11:52:07;11.98;;;10.65;;
70975;SDS011;58635;51.198;6.010;2023-05-21T11:54:38;13.60;;;12.20;;
70975;SDS011;58635;51.198;6.010;2023-05-21T11:57:10;13.15;;;10.38;;
70975;SDS011;58635;51.198;6.010;2023-05-21T11:59:36;14.73;;;11.95;;
70975;SDS011;58635;51.198;6.010;2023-05-21T12:02:02;14.13;;;11.63;;
70975;SDS011;58635;51.198;6.010;2023-05-21T12:04:29;13.45;;;11.30;;
70975;SDS011;58635;51.198;6.010;2023-05-21T12:06:55;12.73;;;11.43;;
70975;SDS011;58635;51.198;6.010;2023-05-21T12:09:22;13.38;;;11.70;;
70975;SDS011;58635;51.198;6.010;2023-05-21T12:11:48;14.38;;;11.38;;
70975;SDS011;58635;51.198;6.010;2023-05-21T12:14:15;15.35;;;12.15;;
70975;SDS011;58635;51.198;6.010;2023-05-21T12:16:41;14.48;;;11.63;;
70975;SDS011;58635;51.198;6.010;2023-05-21T12:19:07;14.43;;;11.95;;
70975;SDS011;58635;51.198;6.010;2023-05-21T12:21:34;12.82;;;11.52;;
70975;SDS011;58635;51.198;6.010;2023-05-21T12:24:00;13.20;;;11.40;;
70975;SDS011;58635;51.198;6.010;2023-05-21T12:26:26;14.98;;;11.48;;
70975;SDS011;58635;51.198;6.010;2023-05-21T12:28:52;14.10;;;11.88;;
70975;SDS011;58635;51.198;6.010;2023-05-21T12:31:21;14.32;;;12.85;;
70975;SDS011;58635;51.198;6.010;2023-05-21T12:33:50;13.82;;;12.43;;
70975;SDS011;58635;51.198;6.010;2023-05-21T12:36:26;11.88;;;10.68;;
70975;SDS011;58635;51.198;6.010;2023-05-21T12:38:54;11.38;;;10.27;;
70975;SDS011;58635;51.198;6.010;2023-05-21T12:41:20;13.63;;;11.77;;
70975;SDS011;58635;51.198;6.010;2023-05-21T12:43:46;14.27;;;12.77;;
70975;SDS011;58635;51.198;6.010;2023-05-21T12:46:12;14.80;;;11.73;;
70975;SDS011;58635;51.198;6.010;2023-05-21T12:48:48;13.05;;;11.15;;
70975;SDS011;58635;51.198;6.010;2023-05-21T12:51:15;14.00;;;10.25;;
70975;SDS011;58635;51.198;6.010;2023-05-21T12:53:41;13.60;;;12.18;;
70975;SDS011;58635;51.198;6.010;2023-05-21T12:56:10;14.25;;;12.02;;
70975;SDS011;58635;51.198;6.010;2023-05-21T12:58:36;13.23;;;11.80;;
70975;SDS011;58635;51.198;6.010;2023-05-21T13:01:08;12.77;;;10.77;;
70975;SDS011;58635;51.198;6.010;2023-05-21T13:03:35;12.88;;;11.35;;
70975;SDS011;58635;51.198;6.010;2023-05-21T13:06:01;13.77;;;11.77;;
70975;SDS011;58635;51.198;6.010;2023-05-21T13:08:30;12.45;;;11.05;;
70975;SDS011;58635;51.198;6.010;2023-05-21T13:10:55;12.93;;;11.25;;
70975;SDS011;58635;51.198;6.010;2023-05-21T13:13:20;12.88;;;11.43;;
70975;SDS011;58635;51.198;6.010;2023-05-21T13:15:46;12.63;;;11.32;;
70975;SDS011;58635;51.198;6.010;2023-05-21T13:18:11;13.35;;;10.25;;
70975;SDS011;58635;51.198;6.010;2023-05-21T13:20:37;12.23;;;10.93;;
70975;SDS011;58635;51.198;6.010;2023-05-21T13:23:02;12.70;;;11.18;;
70975;SDS011;58635;51.198;6.010;2023-05-21T13:25:29;13.38;;;10.55;;
70975;SDS011;58635;51.198;6.010;2023-05-21T13:27:59;12.23;;;11.02;;
70975;SDS011;58635;51.198;6.010;2023-05-21T13:30:26;12.48;;;10.52;;
70975;SDS011;58635;51.198;6.010;2023-05-21T13:32:51;11.75;;;10.52;;
70975;SDS011;58635;51.198;6.010;2023-05-21T13:35:17;11.88;;;10.68;;
70975;SDS011;58635;51.198;6.010;2023-05-21T13:37:42;11.23;;;10.02;;
70975;SDS011;58635;51.198;6.010;2023-05-21T13:40:08;12.63;;;10.43;;
70975;SDS011;58635;51.198;6.010;2023-05-21T13:42:35;14.30;;;10.98;;
70975;SDS011;58635;51.198;6.010;2023-05-21T13:45:02;12.05;;;10.38;;
70975;SDS011;58635;51.198;6.010;2023-05-21T13:47:28;11.82;;;10.45;;
70975;SDS011;58635;51.198;6.010;2023-05-21T13:49:54;11.65;;;10.45;;
70975;SDS011;58635;51.198;6.010;2023-05-21T13:52:19;12.10;;;10.88;;
70975;SDS011;58635;51.198;6.010;2023-05-21T13:54:45;11.80;;;10.60;;
70975;SDS011;58635;51.198;6.010;2023-05-21T13:57:11;12.27;;;10.98;;
70975;SDS011;58635;51.198;6.010;2023-05-21T13:59:36;12.48;;;11.05;;
70975;SDS011;58635;51.198;6.010;2023-05-21T14:02:04;12.88;;;10.75;;
70975;SDS011;58635;51.198;6.010;2023-05-21T14:04:30;12.00;;;10.30;;
70975;SDS011;58635;51.198;6.010;2023-05-21T14:06:55;13.15;;;11.30;;
70975;SDS011;58635;51.198;6.010;2023-05-21T14:09:20;13.68;;;10.48;;
70975;SDS011;58635;51.198;6.010;2023-05-21T14:11:47;11.35;;;10.25;;
70975;SDS011;58635;51.198;6.010;2023-05-21T14:14:12;11.85;;;9.75;;
70975;SDS011;58635;51.198;6.010;2023-05-21T14:16:43;12.15;;;10.52;;
70975;SDS011;58635;51.198;6.010;2023-05-21T14:19:09;13.02;;;11.23;;
70975;SDS011;58635;51.198;6.010;2023-05-21T14:21:35;13.30;;;10.65;;
70975;SDS011;58635;51.198;6.010;2023-05-21T14:24:00;11.82;;;10.60;;
70975;SDS011;58635;51.198;6.010;2023-05-21T14:26:26;14.63;;;10.88;;
70975;SDS011;58635;51.198;6.010;2023-05-21T14:28:51;11.15;;;9.98;;
70975;SDS011;58635;51.198;6.010;2023-05-21T14:31:16;11.32;;;9.77;;
70975;SDS011;58635;51.198;6.010;2023-05-21T14:33:42;13.70;;;11.15;;
70975;SDS011;58635;51.198;6.010;2023-05-21T14:36:07;12.25;;;10.80;;
70975;SDS011;58635;51.198;6.010;2023-05-21T14:38:33;12.25;;;10.65;;
70975;SDS011;58635;51.198;6.010;2023-05-21T14:40:58;11.93;;;10.63;;
70975;SDS011;58635;51.198;6.010;2023-05-21T14:43:23;13.05;;;10.68;;
70975;SDS011;58635;51.198;6.010;2023-05-21T14:45:49;11.52;;;10.30;;
70975;SDS011;58635;51.198;6.010;2023-05-21T14:48:17;11.95;;;10.48;;
70975;SDS011;58635;51.198;6.010;2023-05-21T14:50:47;11.98;;;10.70;;
70975;SDS011;58635;51.198;6.010;2023-05-21T14:53:15;12.07;;;10.77;;
70975;SDS011;58635;51.198;6.010;2023-05-21T14:55:41;12.50;;;11.20;;
70975;SDS011;58635;51.198;6.010;2023-05-21T14:58:07;12.07;;;10.32;;
70975;SDS011;58635;51.198;6.010;2023-05-21T15:00:33;11.73;;;10.40;;
70975;SDS011;58635;51.198;6.010;2023-05-21T15:02:59;12.43;;;10.45;;
70975;SDS011;58635;51.198;6.010;2023-05-21T15:05:25;16.15;;;11.70;;
70975;SDS011;58635;51.198;6.010;2023-05-21T15:07:57;15.13;;;11.13;;
70975;SDS011;58635;51.198;6.010;2023-05-21T15:10:23;12.95;;;11.50;;
70975;SDS011;58635;51.198;6.010;2023-05-21T15:12:50;14.38;;;11.30;;
70975;SDS011;58635;51.198;6.010;2023-05-21T15:15:15;14.50;;;10.63;;
70975;SDS011;58635;51.198;6.010;2023-05-21T15:17:41;14.25;;;10.75;;